Hall Beach Airport
CYUX : now visible

Airfield :











YOU CAN JOIN US ON...

 
LOGIN :

Register | Disclaimer

   EN    FR    IT 

 









Legend :    VFR   Marginal VFR   IFR   Intensive IFR   Very Intensive IFR
Visi :
Ceiling :
>= 8 km
>= 3000ft
5 to 8 km
1000 to 3000 ft
1500m to 5 km
500 to 1000 ft
800 to 1500m
200 to 500 ft
< 800m
< 200 ft
Symbols :   Thunderstorms  Fog  Heavy snow  Heavy precipitations  Wind > 20 kt






- Airport Elevation : 27 ft
- IATA code : YUX


CYUX - Hall Beach

CURRENT METAR :
  • 271938Z 03010KT 6SM -SN SCT012 SCT110 M26/M28 A2986 RMK SC4AC1 AC TR SLP113

EXPIRED METARs :
  • 271900Z 05010KT 5SM -SN BKN012 BKN110 M25/M28 A2984 RMK SC5AC1 SLP109
  • 271849Z 05011KT 6SM -SN BKN014 BKN110 M25/M28 A2984 RMK SC5AC1 SLP108
  • 271800Z 05010KT 10SM FEW012 SCT026 SCT110 M25/M27 A2982 RMK SC2SC1AC1 SLP102
  • 271700Z 06014KT 10SM FEW011 FEW026 SCT110 M24/M27 A2980 RMK SF1SC1AC2 SF TR SLP094

TAF TAF CYUX
Valid from the 27 at 19:00 until the 28 at 07:00 UTC


271838Z 2719/2807 05012KT P6SM FEW012 SCT025
TEMPO 2719/2807 5SM IC
BECMG 2719/2721 01012KT RMK NXT FCST BY 280100Z



MET'MAP, your aeronautical weather chart ! - Copyright ORBIFLY December 2007 - Disclaimer

ORBIFLY MET'MAP TEAM :

Programming & Development : Alexandra Zaïnal
Concept & original design : Baudouin d'Aumeries
Assistance for programming : Marc-Olivier Méhu
Technical & hardware support : Manuel Goepfert

Contact : metmap@orbifly.com




SOURCES & CREDITS :

   NOAA       Earth
Advisory